Airfield :
LOGIN :

Register | Disclaimer

   EN    FR    IT 

 










Legend :    VFR   Marginal VFR   IFR   Intensive IFR   Very Intensive IFR
Visi :
Ceiling :
>= 8 km
>= 3000ft
5 to 8 km
1000 to 3000 ft
1500m to 5 km
500 to 1000 ft
800 to 1500m
200 to 500 ft
< 800m
< 200 ft
Symbols :   Thunderstorms  Fog  Heavy snow  Heavy precipitations  Wind > 20 kt
SIGMETs :     Misc.  Thunderstorms  Icing  Turbulence  Mountain Waves  Volcanic Ashes






- Airport Elevation : 93 ft
- IATA code : XRY


LEJR - Jerez

CURRENT METAR :
  • 162100Z 21003KT 160V240 CAVOK 20/15 Q1014

EXPIRED METARs :
  • 162030Z 23006KT CAVOK 21/15 Q1013
  • 162000Z 25007KT CAVOK 22/14 Q1013
  • 161930Z 24009KT CAVOK 23/15 Q1013
  • 161900Z 25009KT CAVOK 24/15 Q1013
  • 161830Z 24009KT CAVOK 25/14 Q1013
  • 161800Z 25008KT 220V280 CAVOK 26/13 Q1013
  • 161730Z 23009KT 200V260 CAVOK 27/12 Q1013
  • 161700Z 24008KT 200V270 CAVOK 28/12 Q1013
  • 161630Z 24006KT 170V290 CAVOK 28/11 Q1013

TAF TAF LEJR
Valid from the 16 at 21:00 until the 17 at 21:00 UTC


162000Z 1621/1721 15005KT CAVOK TX31/1714Z TN14/1706Z
PROB30
TEMPO 1702/1707 3000 BR BKN005
BECMG 1711/1713 27010KT



MET'MAP, your aeronautical weather chart ! - Copyright ORBIFLY December 2007 - Disclaimer

ORBIFLY MET'MAP TEAM :

Programming & Development : Alexandra Zaïnal
Original concept : Baudouin d'Aumeries
Technical & hardware support : Manuel Goepfert
Assistance : Marc-Olivier Méhu




SOURCES & CREDITS :

   NOAA